createdAt,value
2023-04-10T00:00:38.258Z,9.73
2023-04-10T00:03:06.144Z,9.38
2023-04-10T00:05:33.314Z,9.25
2023-04-10T00:08:00.404Z,9.15
2023-04-10T00:10:29.401Z,8.82
2023-04-10T00:12:56.479Z,8.75
2023-04-10T00:15:23.659Z,9.20
2023-04-10T00:17:55.068Z,8.70
2023-04-10T00:20:23.740Z,8.98
2023-04-10T00:22:50.776Z,9.07
2023-04-10T00:25:18.063Z,8.68
2023-04-10T00:27:45.015Z,9.38
2023-04-10T00:30:12.134Z,8.40
2023-04-10T00:32:39.076Z,8.95
2023-04-10T00:35:08.447Z,9.93
2023-04-10T00:37:35.816Z,8.95
2023-04-10T00:40:03.294Z,8.95
2023-04-10T00:42:30.331Z,8.93
2023-04-10T00:44:57.229Z,8.90
2023-04-10T00:47:24.792Z,9.40
2023-04-10T00:49:52.302Z,9.20
2023-04-10T00:52:20.189Z,9.55
2023-04-10T00:54:47.379Z,9.15
2023-04-10T00:57:14.286Z,9.63
2023-04-10T00:59:41.616Z,9.32
2023-04-10T01:02:08.623Z,9.35
2023-04-10T01:04:36.307Z,8.90
2023-04-10T01:07:49.388Z,9.65
2023-04-10T01:10:42.829Z,9.35
2023-04-10T01:16:26.733Z,10.68
2023-04-10T01:19:25.667Z,9.45
2023-04-10T01:21:56.057Z,9.07
2023-04-10T01:25:17.061Z,8.27
2023-04-10T01:28:30.389Z,7.95
2023-04-10T01:31:03.279Z,7.28
2023-04-10T01:36:28.045Z,7.38
2023-04-10T01:38:57.889Z,7.80
2023-04-10T01:41:26.878Z,7.47
2023-04-10T01:43:55.774Z,7.85
2023-04-10T01:46:24.865Z,7.80
2023-04-10T01:48:54.621Z,8.02
2023-04-10T01:51:23.729Z,8.35
2023-04-10T01:53:52.989Z,8.20
2023-04-10T01:56:20.543Z,7.93
2023-04-10T01:58:47.813Z,7.85
2023-04-10T02:01:29.605Z,7.78
2023-04-10T02:03:59.142Z,10.05
2023-04-10T02:06:51.318Z,9.10
2023-04-10T02:09:28.768Z,9.52
2023-04-10T02:12:04.470Z,8.85
2023-04-10T02:14:36.364Z,10.57
2023-04-10T02:17:04.176Z,9.05
2023-04-10T02:19:33.263Z,8.63
2023-04-10T02:22:00.537Z,8.90
2023-04-10T02:24:28.786Z,8.25
2023-04-10T02:26:56.494Z,10.43
2023-04-10T02:29:23.397Z,9.85
2023-04-10T02:31:50.777Z,10.85
2023-04-10T02:34:17.634Z,12.07
2023-04-10T02:36:44.551Z,11.75
2023-04-10T02:39:11.425Z,11.77
2023-04-10T02:41:38.279Z,12.15
2023-04-10T02:44:06.572Z,12.65
2023-04-10T02:46:33.566Z,12.65
2023-04-10T02:49:01.254Z,12.15
2023-04-10T02:51:28.176Z,13.07
2023-04-10T02:53:55.393Z,13.02
2023-04-10T02:56:22.419Z,14.07
2023-04-10T02:58:49.366Z,14.48
2023-04-10T03:01:16.266Z,14.57
2023-04-10T03:03:43.267Z,12.57
2023-04-10T03:06:11.101Z,13.32
2023-04-10T03:08:38.018Z,14.38
2023-04-10T03:11:05.510Z,14.15
2023-04-10T03:13:32.404Z,12.98
2023-04-10T03:15:59.311Z,13.02
2023-04-10T03:18:26.292Z,14.38
2023-04-10T03:20:53.225Z,16.75
2023-04-10T03:23:20.641Z,10.85
2023-04-10T03:25:53.781Z,12.18
2023-04-10T03:28:22.110Z,10.80
2023-04-10T03:30:51.997Z,9.30
2023-04-10T03:33:18.907Z,10.77
2023-04-10T03:35:46.743Z,12.55
2023-04-10T03:38:13.874Z,11.48
2023-04-10T03:40:40.880Z,10.50
2023-04-10T03:43:07.867Z,9.93
2023-04-10T03:45:34.799Z,8.32
2023-04-10T03:48:01.849Z,8.73
2023-04-10T03:50:28.887Z,8.55
2023-04-10T03:52:56.043Z,8.82
2023-04-10T03:55:23.013Z,8.75
2023-04-10T03:57:50.192Z,9.55
2023-04-10T04:00:17.730Z,10.80
2023-04-10T04:02:45.082Z,9.48
2023-04-10T04:05:12.430Z,9.65
2023-04-10T04:07:39.360Z,9.55
2023-04-10T04:10:06.953Z,8.68
2023-04-10T04:12:33.852Z,9.27
2023-04-10T04:15:00.737Z,8.85
2023-04-10T04:17:27.773Z,8.43
2023-04-10T04:19:54.691Z,9.70
2023-04-10T04:22:21.683Z,11.57
2023-04-10T04:24:48.571Z,10.85
2023-04-10T04:27:15.505Z,9.23
2023-04-10T04:29:42.419Z,12.65
2023-04-10T04:32:09.364Z,13.45
2023-04-10T04:34:36.341Z,10.98
2023-04-10T04:50:11.049Z,10.10
2023-04-10T04:52:38.170Z,11.18
2023-04-10T04:55:05.770Z,12.02
2023-04-10T04:57:32.798Z,13.48
2023-04-10T04:59:59.851Z,13.15
2023-04-10T05:02:27.044Z,12.48
2023-04-10T05:04:54.372Z,10.63
2023-04-10T05:07:21.402Z,11.77
2023-04-10T05:09:48.421Z,11.60
2023-04-10T05:12:15.587Z,11.35
2023-04-10T05:14:42.874Z,12.15
2023-04-10T05:17:09.911Z,12.38
2023-04-10T05:19:37.180Z,11.65
2023-04-10T05:22:04.222Z,15.25
2023-04-10T05:24:32.146Z,12.65
2023-04-10T05:26:59.234Z,11.30
2023-04-10T05:29:26.800Z,11.93
2023-04-10T05:31:54.069Z,12.82
2023-04-10T05:34:21.198Z,13.15
2023-04-10T05:36:48.476Z,12.38
2023-04-10T05:39:15.865Z,12.68
2023-04-10T05:41:43.016Z,12.93
2023-04-10T05:44:10.265Z,12.25
2023-04-10T05:46:37.433Z,10.52
2023-04-10T05:49:04.712Z,10.45
2023-04-10T05:51:32.097Z,10.18
2023-04-10T05:53:59.123Z,10.50
2023-04-10T05:56:26.727Z,10.15
2023-04-10T05:58:54.032Z,9.90
2023-04-10T06:01:21.406Z,11.13
2023-04-10T06:03:48.825Z,11.60
2023-04-10T06:06:16.657Z,12.15
2023-04-10T06:08:44.085Z,12.60
2023-04-10T06:11:14.569Z,12.00
2023-04-10T06:13:41.776Z,11.07
2023-04-10T06:16:09.608Z,11.88
2023-04-10T06:18:38.203Z,12.10
2023-04-10T06:21:05.822Z,10.15
2023-04-10T06:23:33.109Z,9.82
2023-04-10T06:26:01.484Z,10.95
2023-04-10T06:28:28.664Z,13.80
2023-04-10T06:30:56.076Z,14.50
2023-04-10T06:33:26.167Z,9.82
2023-04-10T06:35:53.421Z,15.77
2023-04-10T06:38:20.515Z,15.07
2023-04-10T06:40:47.901Z,12.57
2023-04-10T06:43:14.976Z,12.48
2023-04-10T06:45:42.094Z,12.77
2023-04-10T06:48:09.140Z,9.95
2023-04-10T06:50:36.498Z,10.10
2023-04-10T06:53:03.553Z,9.65
2023-04-10T06:55:30.840Z,8.75
2023-04-10T06:57:57.904Z,7.90
2023-04-10T07:00:25.689Z,8.93
2023-04-10T07:02:53.021Z,8.30
2023-04-10T07:05:20.123Z,9.45
2023-04-10T07:07:47.722Z,8.75
2023-04-10T07:10:14.857Z,10.00
2023-04-10T07:12:41.970Z,8.60
2023-04-10T07:15:09.852Z,9.73
2023-04-10T07:17:36.932Z,7.78
2023-04-10T07:20:04.896Z,7.30
2023-04-10T07:22:32.937Z,7.65
2023-04-10T07:25:00.324Z,7.30
2023-04-10T07:27:28.068Z,6.55
2023-04-10T07:29:56.976Z,5.55
2023-04-10T07:32:25.039Z,5.28
2023-04-10T07:34:52.495Z,5.72
2023-04-10T07:37:19.527Z,5.97
2023-04-10T07:39:47.406Z,5.50
2023-04-10T07:42:14.599Z,5.28
2023-04-10T07:44:41.802Z,5.90
2023-04-10T07:47:08.898Z,5.63
2023-04-10T07:49:36.108Z,5.38
2023-04-10T07:52:03.229Z,4.82
2023-04-10T07:54:34.251Z,5.88
2023-04-10T07:57:01.374Z,5.78
2023-04-10T07:59:28.959Z,6.28
2023-04-10T08:01:56.346Z,6.20
2023-04-10T08:04:23.808Z,6.35
2023-04-10T08:06:51.084Z,6.68
2023-04-10T08:09:18.224Z,6.15
2023-04-10T08:11:45.261Z,6.60
2023-04-10T08:14:13.605Z,6.82
2023-04-10T08:16:45.731Z,6.60
2023-04-10T08:19:12.786Z,6.50
2023-04-10T08:21:40.018Z,6.80
2023-04-10T08:24:07.589Z,6.88
2023-04-10T08:26:34.816Z,6.70
2023-04-10T08:29:02.068Z,6.95
2023-04-10T08:31:30.037Z,6.75
2023-04-10T08:33:58.144Z,6.43
2023-04-10T08:36:27.356Z,6.45
2023-04-10T08:38:54.766Z,6.78
2023-04-10T08:41:21.852Z,6.32
2023-04-10T08:43:50.171Z,6.07
2023-04-10T08:46:17.612Z,5.88
2023-04-10T08:49:05.655Z,8.43
2023-04-10T08:51:42.960Z,6.40
2023-04-10T08:54:26.058Z,6.10
2023-04-10T08:57:00.830Z,5.47
2023-04-10T08:59:31.544Z,6.25
2023-04-10T09:01:59.981Z,5.75
2023-04-10T09:04:27.726Z,5.65
2023-04-10T09:06:54.875Z,5.75
2023-04-10T09:09:21.847Z,5.25
2023-04-10T09:12:01.225Z,6.18
2023-04-10T09:14:34.655Z,5.93
2023-04-10T09:17:22.178Z,6.13
2023-04-10T09:19:56.704Z,5.97
2023-04-10T09:22:39.172Z,6.30
2023-04-10T09:25:07.341Z,12.23
2023-04-10T09:27:37.492Z,7.40
2023-04-10T09:30:07.295Z,7.57
2023-04-10T09:32:42.539Z,8.98
2023-04-10T09:35:13.553Z,6.57
2023-04-10T09:37:44.091Z,15.77
2023-04-10T09:40:24.792Z,4.60
2023-04-10T09:42:53.755Z,4.03
2023-04-10T09:45:22.639Z,4.65
2023-04-10T09:48:08.657Z,5.70
2023-04-10T09:50:41.184Z,8.45
2023-04-10T09:53:17.324Z,4.38
2023-04-10T09:55:44.778Z,7.35
2023-04-10T09:58:13.133Z,12.68
2023-04-10T10:00:43.874Z,4.43
2023-04-10T10:03:14.878Z,5.07
2023-04-10T10:05:49.424Z,5.30
2023-04-10T10:08:17.809Z,5.00
2023-04-10T10:11:10.170Z,5.38
2023-04-10T10:13:54.924Z,5.05
2023-04-10T10:16:45.380Z,6.60
2023-04-10T10:19:31.545Z,5.35
2023-04-10T10:22:02.388Z,5.55
2023-04-10T10:24:33.997Z,5.00
2023-04-10T10:27:02.890Z,5.60
2023-04-10T10:29:32.915Z,5.97
2023-04-10T10:32:04.056Z,5.82
2023-04-10T10:34:32.026Z,5.05
2023-04-10T10:37:00.252Z,4.70
2023-04-10T10:40:02.260Z,4.70
2023-04-10T10:42:49.509Z,4.68
2023-04-10T10:45:24.034Z,4.53
2023-04-10T10:47:55.467Z,4.07
2023-04-10T10:50:24.261Z,4.40
2023-04-10T10:52:57.767Z,4.07
2023-04-10T10:55:24.903Z,4.63
2023-04-10T10:57:54.387Z,5.00
2023-04-10T11:00:24.156Z,5.00
2023-04-10T11:03:10.972Z,4.60
2023-04-10T11:06:02.837Z,5.35
2023-04-10T11:08:33.301Z,5.18
2023-04-10T11:11:07.763Z,5.38
2023-04-10T11:13:37.298Z,5.78
2023-04-10T11:16:07.177Z,5.65
2023-04-10T11:18:48.219Z,5.28
2023-04-10T11:21:22.112Z,6.07
2023-04-10T11:23:54.226Z,5.53
2023-04-10T11:26:41.699Z,5.35
2023-04-10T11:29:17.605Z,5.65
2023-04-10T11:32:00.993Z,5.95
2023-04-10T11:34:31.134Z,5.18
2023-04-10T11:36:58.397Z,5.40
2023-04-10T11:39:27.905Z,5.95
2023-04-10T11:41:58.346Z,5.68
2023-04-10T11:44:32.117Z,5.88
2023-04-10T11:46:59.738Z,5.80
2023-04-10T11:49:31.986Z,5.63
2023-04-10T11:51:59.655Z,5.17
2023-04-10T11:54:29.128Z,5.47
2023-04-10T11:57:12.048Z,4.90
2023-04-10T11:59:40.544Z,4.82
2023-04-10T12:02:16.629Z,4.72
2023-04-10T12:04:44.886Z,4.97
2023-04-10T12:07:12.255Z,4.47
2023-04-10T12:09:39.844Z,4.57
2023-04-10T12:12:08.998Z,4.47
2023-04-10T12:14:42.499Z,4.75
2023-04-10T12:17:12.994Z,5.00
2023-04-10T12:19:41.647Z,5.28
2023-04-10T12:22:12.953Z,4.82
2023-04-10T12:24:51.785Z,4.70
2023-04-10T12:27:22.033Z,4.75
2023-04-10T12:29:52.616Z,5.22
2023-04-10T12:32:21.198Z,4.90
2023-04-10T12:34:59.139Z,4.97
2023-04-10T12:37:49.629Z,5.20
2023-04-10T12:40:17.266Z,5.07
2023-04-10T12:42:44.744Z,5.05
2023-04-10T12:45:14.310Z,5.18
2023-04-10T12:47:52.669Z,5.05
2023-04-10T12:50:24.511Z,4.53
2023-04-10T12:53:07.665Z,4.57
2023-04-10T12:55:34.828Z,4.40
2023-04-10T12:58:18.190Z,4.53
2023-04-10T13:00:45.625Z,4.07
2023-04-10T13:03:13.097Z,4.28
2023-04-10T13:05:40.714Z,4.30
2023-04-10T13:08:07.877Z,4.47
2023-04-10T13:10:38.160Z,4.25
2023-04-10T13:13:07.206Z,4.50
2023-04-10T13:15:34.930Z,4.50
2023-04-10T13:18:04.427Z,4.30
2023-04-10T13:20:40.543Z,4.32
2023-04-10T13:23:08.632Z,4.22
2023-04-10T13:25:40.149Z,4.60
2023-04-10T13:28:11.652Z,5.10
2023-04-10T13:30:41.683Z,4.68
2023-04-10T13:33:10.595Z,4.97
2023-04-10T13:35:40.549Z,4.60
2023-04-10T13:38:09.531Z,4.85
2023-04-10T13:40:36.788Z,9.43
2023-04-10T13:43:04.138Z,5.32
2023-04-10T13:45:31.312Z,15.90
2023-04-10T13:47:58.496Z,5.20
2023-04-10T13:50:25.717Z,6.10
2023-04-10T13:52:53.865Z,4.88
2023-04-10T13:55:21.030Z,4.85
2023-04-10T13:57:48.141Z,4.57
2023-04-10T14:00:15.913Z,5.40
2023-04-10T14:02:43.272Z,4.13
2023-04-10T14:05:11.036Z,4.68
2023-04-10T14:07:38.218Z,12.75
2023-04-10T14:10:07.047Z,4.43
2023-04-10T14:12:36.078Z,4.38
2023-04-10T14:15:05.370Z,4.55
2023-04-10T14:17:32.461Z,4.32
2023-04-10T14:19:59.405Z,4.70
2023-04-10T14:22:26.390Z,4.63
2023-04-10T14:25:01.664Z,32.35
2023-04-10T14:30:04.428Z,5.00
2023-04-10T14:32:31.730Z,9.55
2023-04-10T14:34:58.768Z,4.70
2023-04-10T14:37:25.939Z,4.88
2023-04-10T14:39:53.109Z,13.52
2023-04-10T14:42:20.247Z,5.70
2023-04-10T14:44:47.349Z,11.65
2023-04-10T14:47:14.373Z,5.18
2023-04-10T14:49:41.796Z,5.07
2023-04-10T14:52:09.428Z,6.15
2023-04-10T14:54:36.489Z,6.63
2023-04-10T14:57:04.385Z,13.95
2023-04-10T14:59:31.809Z,9.27
2023-04-10T15:02:00.643Z,17.33
2023-04-10T15:04:28.415Z,10.82
2023-04-10T15:06:55.664Z,20.35
2023-04-10T15:09:23.175Z,7.95
2023-04-10T15:11:50.501Z,5.30
2023-04-10T15:14:17.464Z,5.55
2023-04-10T15:16:44.488Z,5.15
2023-04-10T15:19:11.670Z,10.43
2023-04-10T15:21:38.851Z,8.32
2023-04-10T15:24:06.310Z,12.90
2023-04-10T15:26:34.533Z,7.88
2023-04-10T15:29:01.749Z,6.93
2023-04-10T15:31:30.262Z,7.05
2023-04-10T15:33:57.348Z,6.40
2023-04-10T15:36:24.343Z,5.82
2023-04-10T15:38:51.381Z,7.13
2023-04-10T15:41:18.784Z,17.58
2023-04-10T15:43:47.738Z,10.95
2023-04-10T15:46:18.140Z,11.65
2023-04-10T15:48:48.308Z,24.08
2023-04-10T15:51:15.548Z,7.75
2023-04-10T15:53:42.583Z,14.02
2023-04-10T15:56:09.980Z,7.25
2023-04-10T15:58:37.023Z,10.02
2023-04-10T16:01:04.526Z,10.77
2023-04-10T16:03:31.723Z,19.75
2023-04-10T16:05:58.780Z,9.60
2023-04-10T16:08:27.586Z,24.67
2023-04-10T16:10:55.791Z,18.33
2023-04-10T16:13:22.999Z,9.10
2023-04-10T16:15:50.598Z,7.35
2023-04-10T16:18:18.274Z,9.52
2023-04-10T16:20:45.360Z,7.90
2023-04-10T16:23:12.399Z,6.57
2023-04-10T16:25:39.386Z,7.65
2023-04-10T16:28:08.254Z,5.10
2023-04-10T16:30:36.354Z,5.40
2023-04-10T16:33:04.380Z,5.45
2023-04-10T16:35:32.002Z,5.85
2023-04-10T16:37:59.716Z,6.63
2023-04-10T16:40:33.004Z,6.80
2023-04-10T16:43:02.168Z,6.05
2023-04-10T16:45:29.516Z,5.78
2023-04-10T16:47:56.686Z,5.90
2023-04-10T16:50:24.102Z,6.07
2023-04-10T16:52:51.115Z,6.53
2023-04-10T16:55:18.446Z,6.00
2023-04-10T16:57:46.755Z,5.95
2023-04-10T17:00:14.539Z,6.13
2023-04-10T17:02:43.279Z,6.25
2023-04-10T17:05:11.384Z,5.97
2023-04-10T17:07:38.411Z,6.10
2023-04-10T17:10:06.243Z,5.68
2023-04-10T17:12:33.396Z,5.70
2023-04-10T17:15:00.900Z,6.28
2023-04-10T17:17:28.403Z,5.75
2023-04-10T17:19:55.805Z,7.10
2023-04-10T17:22:23.509Z,6.38
2023-04-10T17:24:50.709Z,8.73
2023-04-10T17:27:17.863Z,10.10
2023-04-10T17:29:45.967Z,10.07
2023-04-10T17:32:13.249Z,17.70
2023-04-10T17:34:40.579Z,27.77
2023-04-10T17:37:09.090Z,24.70
2023-04-10T17:39:36.361Z,16.55
2023-04-10T17:42:03.987Z,9.98
2023-04-10T17:44:32.475Z,9.48
2023-04-10T17:46:59.886Z,8.80
2023-04-10T17:49:27.615Z,8.25
2023-04-10T17:51:55.086Z,10.85
2023-04-10T17:54:22.080Z,11.73
2023-04-10T17:56:52.275Z,13.73
2023-04-10T17:59:19.971Z,11.68
2023-04-10T18:01:47.139Z,12.82
2023-04-10T18:04:14.702Z,13.05
2023-04-10T18:06:41.929Z,15.23
2023-04-10T18:09:09.387Z,16.88
2023-04-10T18:11:39.912Z,19.20
2023-04-10T18:14:09.721Z,13.00
2023-04-10T18:16:36.732Z,10.63
2023-04-10T18:19:03.821Z,10.18
2023-04-10T18:21:31.666Z,11.10
2023-04-10T18:23:58.679Z,11.48
2023-04-10T18:26:25.884Z,10.63
2023-04-10T18:28:53.381Z,11.45
2023-04-10T18:31:20.721Z,13.50
2023-04-10T18:33:56.228Z,12.23
2023-04-10T18:36:31.512Z,11.88
2023-04-10T18:38:58.787Z,11.25
2023-04-10T18:41:25.825Z,11.57
2023-04-10T18:44:01.734Z,11.05
2023-04-10T18:46:32.704Z,10.40
2023-04-10T18:49:01.276Z,10.38
2023-04-10T18:51:28.648Z,9.77
2023-04-10T18:53:56.078Z,11.98
2023-04-10T18:56:23.382Z,9.77
2023-04-10T18:58:50.736Z,8.85
2023-04-10T19:01:18.022Z,9.65
2023-04-10T19:03:48.436Z,13.10
2023-04-10T19:06:23.977Z,10.50
2023-04-10T19:08:52.025Z,8.73
2023-04-10T19:11:19.161Z,10.30
2023-04-10T19:13:46.232Z,9.55
2023-04-10T19:16:14.784Z,8.38
2023-04-10T19:18:41.975Z,8.70
2023-04-10T19:21:09.111Z,9.43
2023-04-10T19:23:36.131Z,9.02
2023-04-10T19:26:03.695Z,9.20
2023-04-10T19:28:30.968Z,9.30
2023-04-10T19:30:58.096Z,8.80
2023-04-10T19:33:25.452Z,8.43
2023-04-10T19:35:52.920Z,8.20
2023-04-10T19:38:22.376Z,8.40
2023-04-10T19:40:52.314Z,8.32
2023-04-10T19:43:19.909Z,9.90
2023-04-10T19:45:47.093Z,8.55
2023-04-10T19:48:15.944Z,7.85
2023-04-10T19:50:43.006Z,8.15
2023-04-10T19:53:14.474Z,8.50
2023-04-10T19:55:41.841Z,8.60
2023-04-10T19:58:13.410Z,8.38
2023-04-10T20:00:48.004Z,9.50
2023-04-10T20:03:16.892Z,9.23
2023-04-10T20:05:44.610Z,9.02
2023-04-10T20:08:11.695Z,9.35
2023-04-10T20:10:38.699Z,10.00
2023-04-10T20:13:05.760Z,10.00
2023-04-10T20:15:32.842Z,9.90
2023-04-10T20:17:59.816Z,9.48
2023-04-10T20:20:26.959Z,9.25
2023-04-10T20:22:54.234Z,9.57
2023-04-10T20:25:21.295Z,9.75
2023-04-10T20:27:48.340Z,8.90
2023-04-10T20:30:15.884Z,8.75
2023-04-10T20:32:43.051Z,9.15
2023-04-10T20:35:10.631Z,9.45
2023-04-10T20:37:37.793Z,9.68
2023-04-10T20:40:06.015Z,9.85
2023-04-10T20:42:33.036Z,11.25
2023-04-10T20:45:00.114Z,10.25
2023-04-10T20:47:28.650Z,11.32
2023-04-10T20:49:55.824Z,10.75
2023-04-10T20:52:23.044Z,10.80
2023-04-10T20:54:50.114Z,11.45
2023-04-10T20:57:17.189Z,11.52
2023-04-10T20:59:45.857Z,10.88
2023-04-10T21:02:13.351Z,11.93
2023-04-10T21:04:40.594Z,11.55
2023-04-10T21:07:07.679Z,11.90
2023-04-10T21:09:34.797Z,12.23
2023-04-10T21:12:02.269Z,12.38
2023-04-10T21:14:29.412Z,14.90
2023-04-10T21:16:56.871Z,15.70
2023-04-10T21:19:23.976Z,15.75
2023-04-10T21:21:51.108Z,16.55
2023-04-10T21:24:18.279Z,16.48
2023-04-10T21:26:45.745Z,13.15
2023-04-10T21:29:12.835Z,13.07
2023-04-10T21:31:39.968Z,14.75
2023-04-10T21:34:07.392Z,13.38
2023-04-10T21:36:34.932Z,12.77
2023-04-10T21:39:01.953Z,12.07
2023-04-10T21:41:29.008Z,12.38
2023-04-10T21:44:00.248Z,11.65
2023-04-10T21:46:27.426Z,11.38
2023-04-10T21:48:54.816Z,11.50
2023-04-10T21:51:26.930Z,11.25
2023-04-10T21:54:00.935Z,11.13
2023-04-10T21:56:28.233Z,11.82
2023-04-10T21:58:55.583Z,11.57
2023-04-10T22:01:23.182Z,11.32
2023-04-10T22:03:50.925Z,11.32
2023-04-10T22:06:18.200Z,11.68
2023-04-10T22:08:45.290Z,11.57
2023-04-10T22:11:12.419Z,11.32
2023-04-10T22:13:39.930Z,12.07
2023-04-10T22:16:07.142Z,12.05
2023-04-10T22:18:34.392Z,12.32
2023-04-10T22:21:01.425Z,12.43
2023-04-10T22:23:28.439Z,12.43
2023-04-10T22:25:55.477Z,12.52
2023-04-10T22:28:22.659Z,12.18
2023-04-10T22:30:49.635Z,13.57
2023-04-10T22:33:16.757Z,12.13
2023-04-10T22:35:44.183Z,13.25
2023-04-10T22:38:11.334Z,13.88
2023-04-10T22:40:38.373Z,13.45
2023-04-10T22:43:05.411Z,12.75
2023-04-10T22:45:32.406Z,12.60
2023-04-10T22:47:59.419Z,13.48
2023-04-10T22:50:26.469Z,13.02
2023-04-10T22:52:53.689Z,13.82
2023-04-10T22:55:20.722Z,14.88
2023-04-10T22:57:49.450Z,14.60
2023-04-10T23:00:16.728Z,13.95
2023-04-10T23:02:43.949Z,13.70
2023-04-10T23:05:11.057Z,15.55
2023-04-10T23:07:41.210Z,14.82
2023-04-10T23:10:09.086Z,13.32
2023-04-10T23:12:36.249Z,14.30
2023-04-10T23:15:04.560Z,14.88
2023-04-10T23:17:31.710Z,15.10
2023-04-10T23:19:58.728Z,13.73
2023-04-10T23:22:25.792Z,14.35
2023-04-10T23:24:56.546Z,14.57
2023-04-10T23:27:24.283Z,13.40
2023-04-10T23:29:51.421Z,13.20
2023-04-10T23:32:18.486Z,12.98
2023-04-10T23:34:45.512Z,13.10
2023-04-10T23:37:12.559Z,13.85
2023-04-10T23:39:40.097Z,13.85
2023-04-10T23:42:07.301Z,12.38
2023-04-10T23:44:34.550Z,12.82
2023-04-10T23:47:02.267Z,12.52
2023-04-10T23:49:29.751Z,12.88
2023-04-10T23:51:56.794Z,13.40
2023-04-10T23:54:23.744Z,13.85
2023-04-10T23:56:50.658Z,12.60
2023-04-10T23:59:19.213Z,13.20
